createdAt,value
2022-12-06T00:01:10.598Z,0.53
2022-12-06T00:03:37.672Z,0.20
2022-12-06T00:06:05.460Z,0.30
2022-12-06T00:08:32.369Z,0.17
2022-12-06T00:11:05.121Z,0.20
2022-12-06T00:13:31.722Z,0.20
2022-12-06T00:16:02.826Z,0.20
2022-12-06T00:18:30.021Z,0.20
2022-12-06T00:20:57.134Z,0.10
2022-12-06T00:23:27.566Z,0.10
2022-12-06T00:25:57.494Z,0.40
2022-12-06T00:28:24.129Z,0.20
2022-12-06T00:30:50.705Z,0.20
2022-12-06T00:33:17.371Z,0.10
2022-12-06T00:35:43.976Z,0.20
2022-12-06T00:38:10.510Z,0.20
2022-12-06T00:40:37.132Z,0.43
2022-12-06T00:43:03.731Z,0.30
2022-12-06T00:45:30.358Z,0.20
2022-12-06T00:47:57.061Z,0.20
2022-12-06T00:50:23.745Z,0.20
2022-12-06T00:52:50.375Z,0.20
2022-12-06T00:55:16.983Z,1.23
2022-12-06T00:57:43.570Z,0.20
2022-12-06T01:00:10.620Z,1.17
2022-12-06T01:02:37.168Z,0.20
2022-12-06T01:05:03.874Z,0.10
2022-12-06T01:07:30.496Z,0.20
2022-12-06T01:09:57.454Z,0.20
2022-12-06T01:12:24.353Z,0.20
2022-12-06T01:14:53.247Z,0.30
2022-12-06T01:17:19.834Z,0.20
2022-12-06T01:19:46.408Z,0.30
2022-12-06T01:22:13.091Z,0.20
2022-12-06T01:24:39.735Z,0.20
2022-12-06T01:27:06.324Z,0.20
2022-12-06T01:29:33.178Z,0.40
2022-12-06T01:31:59.791Z,0.20
2022-12-06T01:34:26.496Z,0.20
2022-12-06T01:36:53.121Z,0.40
2022-12-06T01:39:20.576Z,0.43
2022-12-06T01:41:47.173Z,0.20
2022-12-06T01:44:32.297Z,0.10
2022-12-06T01:46:59.042Z,0.20
2022-12-06T01:49:29.005Z,0.20
2022-12-06T01:52:01.114Z,0.20
2022-12-06T01:54:27.799Z,0.20
2022-12-06T01:56:55.684Z,0.37
2022-12-06T01:59:23.342Z,0.10
2022-12-06T02:01:50.331Z,0.20
2022-12-06T02:04:17.707Z,0.20
2022-12-06T02:06:45.792Z,0.40
2022-12-06T02:09:15.395Z,0.17
2022-12-06T02:11:43.703Z,0.20
2022-12-06T02:14:13.104Z,1.77
2022-12-06T02:16:39.730Z,0.13
2022-12-06T02:19:15.284Z,0.30
2022-12-06T02:22:03.223Z,0.20
2022-12-06T02:24:39.122Z,1.50
2022-12-06T02:27:08.993Z,0.20
2022-12-06T02:29:54.395Z,0.17
2022-12-06T02:32:22.747Z,0.20
2022-12-06T02:35:03.215Z,0.20
2022-12-06T02:37:33.214Z,0.20
2022-12-06T02:40:03.460Z,0.20
2022-12-06T02:42:34.193Z,0.20
2022-12-06T02:45:09.065Z,0.20
2022-12-06T02:47:37.064Z,0.10
2022-12-06T02:50:06.400Z,0.50
2022-12-06T02:52:34.266Z,0.20
2022-12-06T02:55:01.443Z,0.23
2022-12-06T02:57:39.458Z,0.30
2022-12-06T03:00:24.571Z,0.20
2022-12-06T03:02:52.105Z,0.30
2022-12-06T03:05:27.394Z,1.13
2022-12-06T03:07:54.184Z,0.20
2022-12-06T03:10:37.963Z,0.20
2022-12-06T03:13:08.621Z,0.20
2022-12-06T03:15:35.285Z,0.73
2022-12-06T03:18:20.843Z,0.20
2022-12-06T03:20:51.181Z,0.20
2022-12-06T03:23:21.262Z,0.10
2022-12-06T03:25:48.514Z,0.20
2022-12-06T03:28:16.497Z,0.10
2022-12-06T03:30:45.887Z,0.20
2022-12-06T03:33:12.995Z,0.20
2022-12-06T03:35:40.730Z,0.53
2022-12-06T03:38:28.011Z,0.20
2022-12-06T03:40:57.188Z,0.20
2022-12-06T03:43:24.261Z,0.10
2022-12-06T03:45:55.433Z,0.20
2022-12-06T03:48:26.080Z,0.20
2022-12-06T03:50:58.704Z,0.20
2022-12-06T03:53:25.504Z,0.17
2022-12-06T03:55:52.479Z,0.30
2022-12-06T03:58:19.067Z,0.10
2022-12-06T04:00:45.953Z,0.20
2022-12-06T04:03:12.584Z,0.20
2022-12-06T04:05:39.138Z,0.20
2022-12-06T04:08:05.783Z,0.20
2022-12-06T04:10:32.441Z,0.10
2022-12-06T04:13:00.819Z,0.20
2022-12-06T04:15:28.608Z,0.20
2022-12-06T04:18:14.186Z,0.20
2022-12-06T04:21:01.617Z,0.20
2022-12-06T04:23:28.652Z,0.57
2022-12-06T04:25:55.709Z,0.10
2022-12-06T04:28:40.786Z,0.20
2022-12-06T04:31:26.173Z,0.20
2022-12-06T04:34:11.696Z,0.20
2022-12-06T04:36:57.023Z,0.37
2022-12-06T04:39:23.603Z,0.17
2022-12-06T04:42:09.165Z,0.20
2022-12-06T04:44:35.802Z,0.20
2022-12-06T04:47:02.462Z,0.20
2022-12-06T04:49:29.099Z,0.20
2022-12-06T04:51:56.040Z,0.73
2022-12-06T04:54:23.360Z,0.10
2022-12-06T04:56:50.042Z,0.73
2022-12-06T04:59:16.679Z,0.87
2022-12-06T05:01:43.292Z,0.10
2022-12-06T05:04:09.991Z,0.20
2022-12-06T05:06:36.797Z,3.80
2022-12-06T05:09:03.563Z,0.10
2022-12-06T05:11:30.109Z,0.20
2022-12-06T05:13:56.797Z,0.20
2022-12-06T05:16:23.414Z,0.20
2022-12-06T05:18:50.063Z,0.20
2022-12-06T05:21:17.899Z,0.20
2022-12-06T05:23:44.656Z,0.20
2022-12-06T05:26:12.340Z,0.10
2022-12-06T05:28:39.348Z,0.20
2022-12-06T05:31:06.626Z,0.30
2022-12-06T05:33:33.625Z,0.20
2022-12-06T05:36:00.186Z,0.20
2022-12-06T05:38:26.850Z,0.20
2022-12-06T05:40:53.483Z,0.20
2022-12-06T05:43:20.055Z,0.20
2022-12-06T05:45:46.719Z,1.33
2022-12-06T05:48:13.383Z,1.90
2022-12-06T05:50:40.406Z,0.20
2022-12-06T05:53:06.962Z,0.20
2022-12-06T05:55:33.558Z,0.20
2022-12-06T05:58:00.091Z,0.20
2022-12-06T06:00:26.701Z,0.20
2022-12-06T06:02:53.393Z,0.20
2022-12-06T06:05:20.366Z,0.23
2022-12-06T06:07:46.979Z,0.10
2022-12-06T06:10:13.964Z,0.20
2022-12-06T06:12:40.561Z,0.10
2022-12-06T06:15:07.420Z,0.70
2022-12-06T06:17:34.663Z,0.10
2022-12-06T06:20:05.690Z,0.20
2022-12-06T06:22:33.952Z,0.17
2022-12-06T06:25:01.171Z,0.20
2022-12-06T06:27:28.232Z,0.20
2022-12-06T06:29:54.994Z,0.20
2022-12-06T06:32:21.556Z,0.40
2022-12-06T06:34:48.133Z,0.20
2022-12-06T06:37:14.893Z,0.20
2022-12-06T06:39:41.486Z,0.20
2022-12-06T06:42:08.099Z,0.20
2022-12-06T06:44:34.699Z,0.20
2022-12-06T06:47:01.254Z,0.20
2022-12-06T06:49:27.823Z,0.20
2022-12-06T06:51:54.433Z,0.20
2022-12-06T06:54:21.141Z,0.13
2022-12-06T06:56:47.711Z,0.20
2022-12-06T06:59:14.300Z,0.20
2022-12-06T07:01:41.061Z,0.20
2022-12-06T07:04:08.035Z,0.20
2022-12-06T07:06:34.570Z,0.20
2022-12-06T07:09:01.122Z,0.20
2022-12-06T07:11:27.787Z,0.20
2022-12-06T07:13:54.385Z,0.20
2022-12-06T07:16:21.334Z,0.40
2022-12-06T07:18:48.058Z,0.33
2022-12-06T07:21:15.798Z,0.20
2022-12-06T07:23:42.474Z,0.10
2022-12-06T07:26:28.955Z,0.17
2022-12-06T07:28:57.860Z,0.50
2022-12-06T07:31:25.766Z,0.20
2022-12-06T07:33:56.476Z,0.10
2022-12-06T07:36:23.831Z,0.20
2022-12-06T07:38:52.004Z,0.17
2022-12-06T07:41:38.102Z,0.20
2022-12-06T07:44:31.464Z,0.30
2022-12-06T07:46:58.433Z,0.20
2022-12-06T07:49:25.030Z,0.30
2022-12-06T07:51:53.198Z,0.20
2022-12-06T07:54:19.818Z,0.20
2022-12-06T07:56:46.395Z,0.27
2022-12-06T07:59:13.102Z,0.20
2022-12-06T08:01:39.931Z,0.20
2022-12-06T08:04:06.727Z,0.20
2022-12-06T08:06:33.886Z,0.20
2022-12-06T08:09:00.786Z,0.50
2022-12-06T08:11:28.790Z,0.20
2022-12-06T08:13:55.648Z,0.20
2022-12-06T08:16:22.416Z,1.60
2022-12-06T08:18:49.814Z,0.20
2022-12-06T08:21:16.668Z,0.10
2022-12-06T08:23:43.262Z,0.20
2022-12-06T08:26:12.479Z,0.40
2022-12-06T08:28:39.433Z,0.10
2022-12-06T08:31:07.370Z,0.17
2022-12-06T08:33:34.462Z,0.43
2022-12-06T08:36:01.242Z,0.10
2022-12-06T08:38:28.243Z,0.10
2022-12-06T08:40:54.791Z,0.20
2022-12-06T08:43:21.346Z,0.20
2022-12-06T08:45:52.210Z,4.13
2022-12-06T08:48:19.214Z,0.20
2022-12-06T08:50:45.767Z,0.50
2022-12-06T08:53:12.559Z,0.17
2022-12-06T08:55:39.429Z,0.40
2022-12-06T08:58:05.973Z,0.20
2022-12-06T09:00:32.557Z,0.20
2022-12-06T09:02:59.233Z,0.40
2022-12-06T09:05:25.848Z,0.20
2022-12-06T09:07:52.611Z,0.20
2022-12-06T09:10:19.296Z,0.30
2022-12-06T09:12:45.948Z,0.20
2022-12-06T09:15:12.598Z,0.20
2022-12-06T09:17:39.170Z,0.20
2022-12-06T09:20:06.667Z,0.37
2022-12-06T09:22:33.309Z,2.00
2022-12-06T09:25:00.013Z,0.20
2022-12-06T09:27:29.747Z,0.40
2022-12-06T09:29:56.304Z,0.20
2022-12-06T09:32:22.915Z,0.47
2022-12-06T09:34:49.571Z,0.20
2022-12-06T09:37:16.153Z,0.20
2022-12-06T09:39:44.484Z,0.50
2022-12-06T09:42:22.322Z,0.20
2022-12-06T09:44:55.109Z,0.20
2022-12-06T09:47:33.726Z,2.97
2022-12-06T09:50:11.379Z,0.20
2022-12-06T09:52:41.150Z,0.10
2022-12-06T09:55:25.925Z,0.63
2022-12-06T09:57:55.266Z,0.20
2022-12-06T10:00:23.401Z,0.17
2022-12-06T10:03:02.396Z,0.30
2022-12-06T10:05:38.383Z,0.10
2022-12-06T10:08:05.177Z,0.20
2022-12-06T10:11:08.460Z,0.20
2022-12-06T10:13:44.175Z,0.67
2022-12-06T10:16:24.900Z,0.47
2022-12-06T10:19:02.440Z,0.13
2022-12-06T10:21:49.414Z,0.20
2022-12-06T10:24:22.094Z,0.67
2022-12-06T10:26:49.991Z,0.20
2022-12-06T10:29:35.073Z,0.20
2022-12-06T10:32:24.396Z,0.10
2022-12-06T10:34:55.952Z,0.17
2022-12-06T10:37:22.529Z,0.10
2022-12-06T10:39:57.904Z,0.20
2022-12-06T10:42:31.648Z,0.20
2022-12-06T10:45:37.217Z,0.23
2022-12-06T10:48:07.996Z,0.10
2022-12-06T10:50:36.536Z,0.30
2022-12-06T10:53:12.745Z,0.20
2022-12-06T10:55:43.657Z,0.17
2022-12-06T10:58:27.416Z,0.27
2022-12-06T11:00:56.845Z,0.50
2022-12-06T11:03:42.643Z,0.27
2022-12-06T11:06:20.961Z,0.20
2022-12-06T11:08:50.582Z,0.10
2022-12-06T11:11:19.997Z,0.20
2022-12-06T11:14:12.706Z,0.20
2022-12-06T11:16:50.464Z,0.20
2022-12-06T11:19:23.342Z,0.10
2022-12-06T11:21:53.459Z,0.20
2022-12-06T11:24:25.746Z,0.20
2022-12-06T11:26:55.325Z,0.20
2022-12-06T11:29:22.481Z,0.20
2022-12-06T11:31:54.410Z,0.27
2022-12-06T11:34:27.242Z,0.10
2022-12-06T11:36:59.838Z,0.20
2022-12-06T11:39:27.582Z,0.20
2022-12-06T11:41:55.547Z,0.17
2022-12-06T11:44:26.724Z,0.13
2022-12-06T11:46:55.474Z,0.20
2022-12-06T11:49:27.458Z,0.20
2022-12-06T11:51:54.670Z,0.20
2022-12-06T11:54:24.329Z,0.40
2022-12-06T11:56:50.941Z,0.20
2022-12-06T11:59:25.526Z,0.20
2022-12-06T12:01:54.161Z,0.20
2022-12-06T12:04:24.953Z,1.17
2022-12-06T12:06:54.482Z,0.20
2022-12-06T12:09:21.253Z,0.20
2022-12-06T12:11:54.990Z,0.57
2022-12-06T12:14:26.903Z,0.20
2022-12-06T12:16:59.194Z,0.10
2022-12-06T12:19:45.538Z,0.20
2022-12-06T12:22:15.258Z,0.30
2022-12-06T12:25:18.614Z,0.17
2022-12-06T12:27:44.739Z,0.20
2022-12-06T12:30:17.490Z,0.20
2022-12-06T12:32:44.770Z,0.20
2022-12-06T12:35:20.607Z,0.20
2022-12-06T12:37:48.835Z,0.20
2022-12-06T12:40:22.433Z,0.20
2022-12-06T12:42:56.166Z,0.20
2022-12-06T12:45:22.714Z,0.70
2022-12-06T12:47:56.682Z,0.20
2022-12-06T12:50:23.993Z,0.10
2022-12-06T12:52:51.411Z,0.20
2022-12-06T12:55:18.100Z,0.17
2022-12-06T12:57:46.243Z,0.20
2022-12-06T13:00:23.596Z,0.10
2022-12-06T13:02:56.297Z,0.20
2022-12-06T13:05:34.804Z,0.20
2022-12-06T13:08:19.914Z,0.20
2022-12-06T13:10:57.045Z,0.20
2022-12-06T13:13:37.397Z,0.20
2022-12-06T13:16:10.623Z,0.10
2022-12-06T13:18:39.728Z,0.20
2022-12-06T13:21:21.782Z,0.10
2022-12-06T13:23:50.414Z,0.20
2022-12-06T13:26:26.658Z,0.20
2022-12-06T13:28:54.921Z,0.30
2022-12-06T13:31:23.587Z,0.17
2022-12-06T13:34:02.621Z,0.10
2022-12-06T13:40:01.670Z,0.20
2022-12-06T13:42:34.645Z,0.20
2022-12-06T13:45:01.284Z,0.20
2022-12-06T13:47:27.871Z,0.33
2022-12-06T13:50:02.148Z,5.10
2022-12-06T13:52:47.478Z,4.90
2022-12-06T13:55:26.133Z,4.73
2022-12-06T13:57:55.869Z,4.80
2022-12-06T14:00:28.802Z,4.93
2022-12-06T14:02:56.621Z,4.57
2022-12-06T14:05:42.231Z,4.50
2022-12-06T14:08:12.722Z,5.80
2022-12-06T14:10:39.527Z,6.00
2022-12-06T14:13:06.238Z,6.20
2022-12-06T14:15:32.904Z,6.33
2022-12-06T14:18:04.268Z,6.30
2022-12-06T14:20:33.651Z,7.03
2022-12-06T14:23:00.247Z,7.97
2022-12-06T14:25:28.874Z,7.83
2022-12-06T14:28:03.388Z,7.63
2022-12-06T14:30:30.230Z,8.13
2022-12-06T14:32:58.029Z,7.67
2022-12-06T14:35:24.649Z,7.50
2022-12-06T14:37:52.884Z,6.70
2022-12-06T14:40:45.411Z,7.13
2022-12-06T14:43:15.493Z,8.10
2022-12-06T14:45:42.988Z,7.17
2022-12-06T14:48:10.831Z,7.63
2022-12-06T14:50:45.366Z,7.20
2022-12-06T14:53:13.479Z,6.87
2022-12-06T14:56:00.402Z,6.57
2022-12-06T14:58:30.261Z,6.60
2022-12-06T15:01:05.470Z,6.60
2022-12-06T15:03:33.180Z,6.57
2022-12-06T15:06:12.291Z,6.07
2022-12-06T15:08:40.270Z,6.10
2022-12-06T15:11:10.009Z,5.70
2022-12-06T15:13:36.879Z,6.80
2022-12-06T15:16:03.551Z,9.67
2022-12-06T15:18:32.901Z,7.73
2022-12-06T15:20:59.668Z,7.27
2022-12-06T15:23:29.520Z,8.23
2022-12-06T15:25:56.132Z,8.33
2022-12-06T15:28:22.866Z,8.70
2022-12-06T15:30:49.656Z,9.50
2022-12-06T15:33:23.805Z,10.67
2022-12-06T15:35:50.991Z,9.73
2022-12-06T15:38:17.836Z,10.17
2022-12-06T15:40:49.023Z,10.53
2022-12-06T15:43:32.842Z,11.33
2022-12-06T15:46:01.250Z,12.20
2022-12-06T15:48:28.691Z,11.57
2022-12-06T15:50:56.675Z,11.37
2022-12-06T15:53:24.795Z,11.27
2022-12-06T15:55:51.680Z,9.93
2022-12-06T15:58:18.490Z,11.63
2022-12-06T16:00:46.258Z,12.47
2022-12-06T16:03:12.867Z,12.43
2022-12-06T16:05:39.522Z,12.53
2022-12-06T16:08:06.122Z,11.27
2022-12-06T16:11:09.781Z,10.83
2022-12-06T16:13:23.655Z,10.13
2022-12-06T16:15:51.613Z,10.03
2022-12-06T16:18:18.309Z,11.27
2022-12-06T16:20:44.967Z,9.67
2022-12-06T16:24:04.604Z,10.27
2022-12-06T16:26:21.699Z,8.47
2022-12-06T16:28:48.341Z,9.30
2022-12-06T16:31:15.055Z,10.03
2022-12-06T16:33:42.044Z,9.60
2022-12-06T16:36:13.627Z,11.20
2022-12-06T16:38:40.357Z,12.07
2022-12-06T16:41:08.959Z,13.83
2022-12-06T16:43:35.869Z,13.70
2022-12-06T16:46:21.299Z,13.47
2022-12-06T16:48:52.559Z,11.10
2022-12-06T16:51:22.084Z,10.47
2022-12-06T16:53:48.831Z,10.00
2022-12-06T16:56:15.837Z,10.20
2022-12-06T16:58:42.392Z,11.10
2022-12-06T17:01:19.197Z,10.93
2022-12-06T17:03:49.578Z,10.47
2022-12-06T17:06:16.740Z,11.70
2022-12-06T17:08:43.790Z,10.70
2022-12-06T17:11:39.103Z,10.60
2022-12-06T17:14:06.030Z,11.77
2022-12-06T17:16:33.570Z,11.47
2022-12-06T17:19:00.326Z,10.77
2022-12-06T17:21:27.049Z,11.50
2022-12-06T17:23:53.666Z,12.90
2022-12-06T17:26:20.374Z,11.33
2022-12-06T17:28:47.102Z,11.20
2022-12-06T17:31:13.931Z,11.80
2022-12-06T17:33:40.562Z,11.77
2022-12-06T17:36:08.743Z,11.97
2022-12-06T17:38:35.670Z,11.90
2022-12-06T17:41:22.276Z,12.20
2022-12-06T17:43:49.024Z,12.60
2022-12-06T17:46:15.684Z,13.50
2022-12-06T17:48:44.765Z,13.03
2022-12-06T17:51:14.573Z,13.57
2022-12-06T17:53:41.126Z,13.77
2022-12-06T17:56:26.474Z,14.27
2022-12-06T17:58:53.878Z,13.97
2022-12-06T18:01:21.020Z,14.07
2022-12-06T18:03:50.240Z,13.87
2022-12-06T18:06:16.881Z,13.47
2022-12-06T18:08:43.458Z,13.73
2022-12-06T18:11:10.185Z,14.00
2022-12-06T18:13:36.798Z,13.77
2022-12-06T18:16:13.211Z,13.73
2022-12-06T18:18:41.225Z,13.37
2022-12-06T18:21:11.398Z,13.80
2022-12-06T18:23:41.039Z,13.43
2022-12-06T18:26:20.507Z,14.27
2022-12-06T18:28:54.637Z,14.50
2022-12-06T18:31:21.817Z,14.73
2022-12-06T18:33:48.760Z,14.00
2022-12-06T18:36:15.476Z,14.57
2022-12-06T18:38:42.916Z,13.93
2022-12-06T18:41:13.472Z,13.77
2022-12-06T18:43:40.542Z,15.03
2022-12-06T18:46:08.973Z,15.03
2022-12-06T18:48:40.764Z,13.73
2022-12-06T18:51:08.853Z,15.07
2022-12-06T18:53:35.537Z,14.33
2022-12-06T18:56:02.477Z,12.93
2022-12-06T18:58:29.161Z,13.43
2022-12-06T19:00:55.858Z,13.43
2022-12-06T19:03:22.511Z,14.00
2022-12-06T19:06:03.950Z,13.40
2022-12-06T19:08:34.151Z,13.50
2022-12-06T19:11:01.936Z,13.70
2022-12-06T19:13:28.748Z,12.60
2022-12-06T19:16:00.735Z,12.77
2022-12-06T19:18:29.761Z,13.00
2022-12-06T19:21:00.032Z,13.47
2022-12-06T19:23:38.688Z,13.03
2022-12-06T19:26:05.490Z,13.07
2022-12-06T19:28:32.910Z,12.40
2022-12-06T19:31:03.655Z,13.53
2022-12-06T19:33:33.708Z,12.80
2022-12-06T19:36:02.290Z,13.27
2022-12-06T19:38:29.560Z,13.27
2022-12-06T19:40:56.297Z,12.23
2022-12-06T19:43:45.298Z,11.80
2022-12-06T19:46:17.077Z,12.23
2022-12-06T19:48:44.086Z,12.33
2022-12-06T19:51:10.758Z,11.97
2022-12-06T19:53:38.495Z,11.93
2022-12-06T19:56:06.801Z,12.30
2022-12-06T19:58:33.643Z,11.80
2022-12-06T20:01:00.440Z,11.67
2022-12-06T20:03:27.159Z,13.03
2022-12-06T20:06:04.100Z,11.13
2022-12-06T20:08:30.721Z,11.10
2022-12-06T20:11:08.441Z,10.43
2022-12-06T20:13:35.155Z,11.17
2022-12-06T20:16:02.154Z,10.87
2022-12-06T20:18:29.682Z,10.87
2022-12-06T20:20:56.534Z,10.80
2022-12-06T20:23:23.422Z,10.07
2022-12-06T20:25:50.461Z,10.03
2022-12-06T20:28:17.991Z,12.07
2022-12-06T20:30:44.727Z,10.70
2022-12-06T20:33:11.526Z,10.67
2022-12-06T20:35:38.282Z,10.47
2022-12-06T20:38:05.228Z,9.40
2022-12-06T20:40:33.550Z,10.97
2022-12-06T20:43:00.178Z,11.30
2022-12-06T20:45:27.871Z,10.83
2022-12-06T20:47:54.710Z,11.30
2022-12-06T20:50:23.354Z,12.67
2022-12-06T20:52:50.034Z,12.47
2022-12-06T20:55:16.692Z,11.47
2022-12-06T20:57:43.282Z,11.60
2022-12-06T21:00:11.732Z,12.13
2022-12-06T21:02:38.721Z,13.10
2022-12-06T21:05:05.665Z,13.27
2022-12-06T21:07:32.338Z,13.20
2022-12-06T21:09:59.237Z,12.73
2022-12-06T21:12:26.283Z,12.60
2022-12-06T21:14:53.108Z,13.33
2022-12-06T21:17:19.768Z,13.67
2022-12-06T21:19:46.378Z,13.13
2022-12-06T21:22:13.008Z,13.97
2022-12-06T21:24:40.089Z,13.10
2022-12-06T21:27:06.808Z,13.80
2022-12-06T21:29:33.862Z,13.80
2022-12-06T21:32:01.625Z,13.13
2022-12-06T21:34:28.428Z,14.90
2022-12-06T21:36:55.107Z,13.93
2022-12-06T21:39:22.507Z,13.87
2022-12-06T21:41:50.093Z,14.73
2022-12-06T21:44:16.760Z,15.13
2022-12-06T21:46:43.475Z,15.27
2022-12-06T21:49:10.943Z,15.30
2022-12-06T21:51:37.618Z,15.37
2022-12-06T21:54:06.984Z,15.47
2022-12-06T21:56:35.107Z,16.33
2022-12-06T21:59:01.977Z,15.77
2022-12-06T22:01:29.441Z,16.57
2022-12-06T22:03:59.076Z,15.80
2022-12-06T22:06:25.923Z,16.93
2022-12-06T22:08:56.739Z,16.30
2022-12-06T22:11:24.232Z,16.27
2022-12-06T22:13:51.097Z,15.70
2022-12-06T22:16:19.184Z,17.67
2022-12-06T22:18:46.558Z,16.40
2022-12-06T22:21:15.357Z,16.40
2022-12-06T22:23:42.077Z,16.37
2022-12-06T22:26:09.915Z,17.00
2022-12-06T22:28:36.724Z,17.27
2022-12-06T22:31:35.915Z,17.30
2022-12-06T22:34:03.013Z,18.43
2022-12-06T22:36:29.800Z,18.17
2022-12-06T22:38:57.321Z,19.43
2022-12-06T22:41:24.815Z,20.40
2022-12-06T22:43:52.794Z,20.60
2022-12-06T22:46:19.698Z,19.40
2022-12-06T22:48:46.596Z,19.53
2022-12-06T22:51:14.970Z,20.40
2022-12-06T22:53:42.804Z,21.37
2022-12-06T22:56:09.831Z,19.90
2022-12-06T22:58:36.647Z,21.20
2022-12-06T23:01:16.420Z,21.30
2022-12-06T23:03:45.210Z,21.70
2022-12-06T23:06:12.455Z,21.90
2022-12-06T23:08:39.269Z,22.60
2022-12-06T23:11:07.554Z,22.33
2022-12-06T23:13:34.587Z,23.37
2022-12-06T23:16:02.787Z,24.60
2022-12-06T23:18:29.955Z,24.33
2022-12-06T23:21:08.372Z,24.03
2022-12-06T23:23:35.704Z,23.67
2022-12-06T23:26:03.347Z,23.53
2022-12-06T23:28:30.372Z,23.97
2022-12-06T23:31:01.153Z,24.90
2022-12-06T23:33:27.844Z,26.03
2022-12-06T23:36:03.391Z,25.00
2022-12-06T23:38:30.132Z,23.87
2022-12-06T23:41:00.925Z,23.43
2022-12-06T23:43:27.530Z,24.30
2022-12-06T23:45:58.432Z,23.63
2022-12-06T23:48:26.824Z,23.67
2022-12-06T23:51:03.618Z,23.23
2022-12-06T23:53:30.794Z,22.83
2022-12-06T23:55:58.960Z,23.93
2022-12-06T23:58:26.105Z,23.53
